sensor_id;sensor_type;location;lat;lon;timestamp;P1;durP1;ratioP1;P2;durP2;ratioP2
28862;SDS011;15994;51.796;13.006;2024-03-02T00:00:30;55.33;;;32.42;;
28862;SDS011;15994;51.796;13.006;2024-03-02T00:02:57;59.05;;;32.30;;
28862;SDS011;15994;51.796;13.006;2024-03-02T00:05:24;51.08;;;32.80;;
28862;SDS011;15994;51.796;13.006;2024-03-02T00:07:54;54.35;;;32.47;;
28862;SDS011;15994;51.796;13.006;2024-03-02T00:10:25;50.88;;;31.65;;
28862;SDS011;15994;51.796;13.006;2024-03-02T00:12:54;55.60;;;32.38;;
28862;SDS011;15994;51.796;13.006;2024-03-02T00:15:29;52.60;;;30.95;;
28862;SDS011;15994;51.796;13.006;2024-03-02T00:17:59;52.83;;;30.85;;
28862;SDS011;15994;51.796;13.006;2024-03-02T00:20:27;51.78;;;30.98;;
28862;SDS011;15994;51.796;13.006;2024-03-02T00:22:56;53.63;;;32.38;;
28862;SDS011;15994;51.796;13.006;2024-03-02T00:25:25;53.67;;;33.42;;
28862;SDS011;15994;51.796;13.006;2024-03-02T00:27:52;56.78;;;34.05;;
28862;SDS011;15994;51.796;13.006;2024-03-02T00:30:54;58.67;;;34.13;;
28862;SDS011;15994;51.796;13.006;2024-03-02T00:33:12;54.72;;;32.05;;
28862;SDS011;15994;51.796;13.006;2024-03-02T00:35:39;58.15;;;33.05;;
28862;SDS011;15994;51.796;13.006;2024-03-02T00:38:06;54.78;;;30.92;;
28862;SDS011;15994;51.796;13.006;2024-03-02T00:40:33;53.65;;;32.25;;
28862;SDS011;15994;51.796;13.006;2024-03-02T00:43:00;57.95;;;33.47;;
28862;SDS011;15994;51.796;13.006;2024-03-02T00:45:28;54.03;;;33.17;;
28862;SDS011;15994;51.796;13.006;2024-03-02T00:47:55;56.03;;;33.33;;
28862;SDS011;15994;51.796;13.006;2024-03-02T00:50:22;54.90;;;33.03;;
28862;SDS011;15994;51.796;13.006;2024-03-02T00:52:49;52.90;;;32.03;;
28862;SDS011;15994;51.796;13.006;2024-03-02T00:55:16;54.42;;;32.53;;
28862;SDS011;15994;51.796;13.006;2024-03-02T00:57:43;55.65;;;33.15;;
28862;SDS011;15994;51.796;13.006;2024-03-02T01:00:10;54.13;;;32.92;;
28862;SDS011;15994;51.796;13.006;2024-03-02T01:02:40;51.25;;;31.05;;
28862;SDS011;15994;51.796;13.006;2024-03-02T01:05:09;53.00;;;32.58;;
28862;SDS011;15994;51.796;13.006;2024-03-02T01:07:37;53.58;;;32.33;;
28862;SDS011;15994;51.796;13.006;2024-03-02T01:10:05;50.45;;;31.45;;
28862;SDS011;15994;51.796;13.006;2024-03-02T01:12:32;56.15;;;31.17;;
28862;SDS011;15994;51.796;13.006;2024-03-02T01:14:59;52.70;;;32.47;;
28862;SDS011;15994;51.796;13.006;2024-03-02T01:17:26;55.88;;;32.60;;
28862;SDS011;15994;51.796;13.006;2024-03-02T01:19:53;49.72;;;31.08;;
28862;SDS011;15994;51.796;13.006;2024-03-02T01:22:20;48.70;;;30.83;;
28862;SDS011;15994;51.796;13.006;2024-03-02T01:24:50;50.20;;;31.80;;
28862;SDS011;15994;51.796;13.006;2024-03-02T01:27:17;50.72;;;31.15;;
28862;SDS011;15994;51.796;13.006;2024-03-02T01:29:44;49.47;;;31.15;;
28862;SDS011;15994;51.796;13.006;2024-03-02T01:32:10;50.40;;;30.95;;
28862;SDS011;15994;51.796;13.006;2024-03-02T01:34:37;52.55;;;31.85;;
28862;SDS011;15994;51.796;13.006;2024-03-02T01:37:04;56.97;;;33.13;;
28862;SDS011;15994;51.796;13.006;2024-03-02T01:39:31;54.47;;;32.95;;
28862;SDS011;15994;51.796;13.006;2024-03-02T01:41:58;61.13;;;32.58;;
28862;SDS011;15994;51.796;13.006;2024-03-02T01:44:25;54.85;;;31.60;;
28862;SDS011;15994;51.796;13.006;2024-03-02T01:46:52;54.20;;;31.88;;
28862;SDS011;15994;51.796;13.006;2024-03-02T01:49:19;46.97;;;31.55;;
28862;SDS011;15994;51.796;13.006;2024-03-02T01:51:46;56.25;;;33.13;;
28862;SDS011;15994;51.796;13.006;2024-03-02T01:54:13;55.78;;;33.60;;
28862;SDS011;15994;51.796;13.006;2024-03-02T01:56:40;52.28;;;32.72;;
28862;SDS011;15994;51.796;13.006;2024-03-02T01:59:07;60.03;;;34.05;;
28862;SDS011;15994;51.796;13.006;2024-03-02T02:01:34;52.20;;;32.65;;
28862;SDS011;15994;51.796;13.006;2024-03-02T02:04:01;56.50;;;33.95;;
28862;SDS011;15994;51.796;13.006;2024-03-02T02:06:27;58.15;;;33.75;;
28862;SDS011;15994;51.796;13.006;2024-03-02T02:08:54;54.08;;;33.28;;
28862;SDS011;15994;51.796;13.006;2024-03-02T02:11:22;61.00;;;33.53;;
28862;SDS011;15994;51.796;13.006;2024-03-02T02:13:49;53.05;;;32.42;;
28862;SDS011;15994;51.796;13.006;2024-03-02T02:16:16;53.45;;;31.30;;
28862;SDS011;15994;51.796;13.006;2024-03-02T02:18:43;51.70;;;31.27;;
28862;SDS011;15994;51.796;13.006;2024-03-02T02:21:09;49.50;;;31.65;;
28862;SDS011;15994;51.796;13.006;2024-03-02T02:23:36;56.17;;;33.10;;
28862;SDS011;15994;51.796;13.006;2024-03-02T02:26:03;52.15;;;31.17;;
28862;SDS011;15994;51.796;13.006;2024-03-02T02:28:30;54.13;;;32.92;;
28862;SDS011;15994;51.796;13.006;2024-03-02T02:30:57;54.03;;;32.65;;
28862;SDS011;15994;51.796;13.006;2024-03-02T02:33:25;58.40;;;32.28;;
28862;SDS011;15994;51.796;13.006;2024-03-02T02:35:52;55.08;;;32.10;;
28862;SDS011;15994;51.796;13.006;2024-03-02T02:38:18;52.63;;;32.22;;
28862;SDS011;15994;51.796;13.006;2024-03-02T02:40:45;49.78;;;31.00;;
28862;SDS011;15994;51.796;13.006;2024-03-02T02:43:12;51.58;;;31.38;;
28862;SDS011;15994;51.796;13.006;2024-03-02T02:45:39;53.65;;;33.08;;
28862;SDS011;15994;51.796;13.006;2024-03-02T02:48:06;57.50;;;33.75;;
28862;SDS011;15994;51.796;13.006;2024-03-02T02:50:33;56.05;;;33.78;;
28862;SDS011;15994;51.796;13.006;2024-03-02T02:53:00;54.92;;;32.88;;
28862;SDS011;15994;51.796;13.006;2024-03-02T02:55:27;55.67;;;32.67;;
28862;SDS011;15994;51.796;13.006;2024-03-02T02:57:54;56.60;;;32.92;;
28862;SDS011;15994;51.796;13.006;2024-03-02T03:00:21;56.63;;;32.80;;
28862;SDS011;15994;51.796;13.006;2024-03-02T03:02:48;60.30;;;34.90;;
28862;SDS011;15994;51.796;13.006;2024-03-02T03:05:16;53.78;;;33.25;;
28862;SDS011;15994;51.796;13.006;2024-03-02T03:07:43;56.25;;;34.33;;
28862;SDS011;15994;51.796;13.006;2024-03-02T03:10:10;54.58;;;33.55;;
28862;SDS011;15994;51.796;13.006;2024-03-02T03:12:37;59.83;;;36.33;;
28862;SDS011;15994;51.796;13.006;2024-03-02T03:15:06;60.13;;;34.75;;
28862;SDS011;15994;51.796;13.006;2024-03-02T03:17:33;59.33;;;35.53;;
28862;SDS011;15994;51.796;13.006;2024-03-02T03:20:01;54.83;;;34.78;;
28862;SDS011;15994;51.796;13.006;2024-03-02T03:22:29;59.88;;;35.38;;
28862;SDS011;15994;51.796;13.006;2024-03-02T03:24:56;59.40;;;36.53;;
28862;SDS011;15994;51.796;13.006;2024-03-02T03:27:23;63.83;;;38.47;;
28862;SDS011;15994;51.796;13.006;2024-03-02T03:29:49;65.70;;;38.75;;
28862;SDS011;15994;51.796;13.006;2024-03-02T03:32:15;64.90;;;36.72;;
28862;SDS011;15994;51.796;13.006;2024-03-02T03:34:42;65.40;;;38.08;;
28862;SDS011;15994;51.796;13.006;2024-03-02T03:37:09;67.22;;;38.40;;
28862;SDS011;15994;51.796;13.006;2024-03-02T03:39:36;61.17;;;37.35;;
28862;SDS011;15994;51.796;13.006;2024-03-02T03:42:03;66.15;;;36.95;;
28862;SDS011;15994;51.796;13.006;2024-03-02T03:44:31;61.80;;;36.20;;
28862;SDS011;15994;51.796;13.006;2024-03-02T03:46:58;60.00;;;36.72;;
28862;SDS011;15994;51.796;13.006;2024-03-02T03:49:25;64.97;;;37.65;;
28862;SDS011;15994;51.796;13.006;2024-03-02T03:51:52;65.95;;;37.78;;
28862;SDS011;15994;51.796;13.006;2024-03-02T03:54:19;65.22;;;37.47;;
28862;SDS011;15994;51.796;13.006;2024-03-02T03:56:46;55.35;;;34.55;;
28862;SDS011;15994;51.796;13.006;2024-03-02T03:59:13;61.47;;;36.08;;
28862;SDS011;15994;51.796;13.006;2024-03-02T04:01:40;60.20;;;36.00;;
28862;SDS011;15994;51.796;13.006;2024-03-02T04:04:07;61.50;;;36.30;;
28862;SDS011;15994;51.796;13.006;2024-03-02T04:06:34;59.78;;;36.92;;
28862;SDS011;15994;51.796;13.006;2024-03-02T04:09:01;63.35;;;36.15;;
28862;SDS011;15994;51.796;13.006;2024-03-02T04:11:28;64.32;;;38.40;;
28862;SDS011;15994;51.796;13.006;2024-03-02T04:13:56;62.20;;;37.30;;
28862;SDS011;15994;51.796;13.006;2024-03-02T04:16:23;62.45;;;37.28;;
28862;SDS011;15994;51.796;13.006;2024-03-02T04:18:50;66.90;;;38.50;;
28862;SDS011;15994;51.796;13.006;2024-03-02T04:21:17;65.75;;;37.22;;
28862;SDS011;15994;51.796;13.006;2024-03-02T04:23:43;63.13;;;39.10;;
28862;SDS011;15994;51.796;13.006;2024-03-02T04:26:10;66.18;;;37.92;;
28862;SDS011;15994;51.796;13.006;2024-03-02T04:28:37;65.35;;;37.63;;
28862;SDS011;15994;51.796;13.006;2024-03-02T04:31:04;69.53;;;40.05;;
28862;SDS011;15994;51.796;13.006;2024-03-02T04:33:31;67.50;;;37.80;;
28862;SDS011;15994;51.796;13.006;2024-03-02T04:35:58;64.63;;;37.97;;
28862;SDS011;15994;51.796;13.006;2024-03-02T04:38:25;62.28;;;36.63;;
28862;SDS011;15994;51.796;13.006;2024-03-02T04:40:52;60.92;;;37.97;;
28862;SDS011;15994;51.796;13.006;2024-03-02T04:43:19;69.78;;;38.38;;
28862;SDS011;15994;51.796;13.006;2024-03-02T04:45:46;62.47;;;37.53;;
28862;SDS011;15994;51.796;13.006;2024-03-02T04:48:13;66.65;;;37.95;;
28862;SDS011;15994;51.796;13.006;2024-03-02T04:50:40;66.90;;;37.40;;
28862;SDS011;15994;51.796;13.006;2024-03-02T04:53:07;65.22;;;38.80;;
28862;SDS011;15994;51.796;13.006;2024-03-02T04:55:34;62.15;;;36.75;;
28862;SDS011;15994;51.796;13.006;2024-03-02T04:58:28;61.28;;;36.55;;
28862;SDS011;15994;51.796;13.006;2024-03-02T05:00:55;57.75;;;36.42;;
28862;SDS011;15994;51.796;13.006;2024-03-02T05:03:22;65.10;;;37.25;;
28862;SDS011;15994;51.796;13.006;2024-03-02T05:05:49;64.00;;;36.83;;
28862;SDS011;15994;51.796;13.006;2024-03-02T05:08:16;63.08;;;36.25;;
28862;SDS011;15994;51.796;13.006;2024-03-02T05:10:43;61.55;;;37.42;;
28862;SDS011;15994;51.796;13.006;2024-03-02T05:13:10;58.85;;;35.40;;
28862;SDS011;15994;51.796;13.006;2024-03-02T05:15:36;59.38;;;35.47;;
28862;SDS011;15994;51.796;13.006;2024-03-02T05:18:04;60.10;;;35.38;;
28862;SDS011;15994;51.796;13.006;2024-03-02T05:20:31;59.80;;;34.78;;
28862;SDS011;15994;51.796;13.006;2024-03-02T05:22:58;58.10;;;34.17;;
28862;SDS011;15994;51.796;13.006;2024-03-02T05:25:25;59.40;;;35.03;;
28862;SDS011;15994;51.796;13.006;2024-03-02T05:27:52;59.63;;;34.83;;
28862;SDS011;15994;51.796;13.006;2024-03-02T05:30:18;58.05;;;35.08;;
28862;SDS011;15994;51.796;13.006;2024-03-02T05:32:46;61.85;;;34.33;;
28862;SDS011;15994;51.796;13.006;2024-03-02T05:35:13;56.13;;;33.47;;
28862;SDS011;15994;51.796;13.006;2024-03-02T05:37:40;55.17;;;34.03;;
28862;SDS011;15994;51.796;13.006;2024-03-02T05:40:07;58.72;;;36.08;;
28862;SDS011;15994;51.796;13.006;2024-03-02T05:42:35;55.95;;;34.08;;
28862;SDS011;15994;51.796;13.006;2024-03-02T05:45:02;56.30;;;34.38;;
28862;SDS011;15994;51.796;13.006;2024-03-02T05:47:29;59.92;;;33.70;;
28862;SDS011;15994;51.796;13.006;2024-03-02T05:49:56;55.15;;;34.70;;
28862;SDS011;15994;51.796;13.006;2024-03-02T05:52:23;56.58;;;33.97;;
28862;SDS011;15994;51.796;13.006;2024-03-02T05:54:49;55.58;;;33.65;;
28862;SDS011;15994;51.796;13.006;2024-03-02T05:57:16;56.65;;;34.00;;
28862;SDS011;15994;51.796;13.006;2024-03-02T05:59:56;57.40;;;34.55;;
28862;SDS011;15994;51.796;13.006;2024-03-02T06:02:24;57.17;;;35.10;;
28862;SDS011;15994;51.796;13.006;2024-03-02T06:04:53;57.03;;;34.78;;
28862;SDS011;15994;51.796;13.006;2024-03-02T06:07:20;53.80;;;34.42;;
28862;SDS011;15994;51.796;13.006;2024-03-02T06:09:47;60.50;;;36.35;;
28862;SDS011;15994;51.796;13.006;2024-03-02T06:12:16;61.75;;;35.97;;
28862;SDS011;15994;51.796;13.006;2024-03-02T06:14:43;56.60;;;35.25;;
28862;SDS011;15994;51.796;13.006;2024-03-02T06:17:10;56.83;;;34.22;;
28862;SDS011;15994;51.796;13.006;2024-03-02T06:19:37;60.10;;;36.22;;
28862;SDS011;15994;51.796;13.006;2024-03-02T06:22:04;61.67;;;35.40;;
28862;SDS011;15994;51.796;13.006;2024-03-02T06:24:33;59.72;;;35.30;;
28862;SDS011;15994;51.796;13.006;2024-03-02T06:27:02;61.13;;;35.83;;
28862;SDS011;15994;51.796;13.006;2024-03-02T06:29:29;61.17;;;36.45;;
28862;SDS011;15994;51.796;13.006;2024-03-02T06:31:56;64.95;;;36.10;;
28862;SDS011;15994;51.796;13.006;2024-03-02T06:34:23;58.13;;;35.28;;
28862;SDS011;15994;51.796;13.006;2024-03-02T06:36:50;60.63;;;35.00;;
28862;SDS011;15994;51.796;13.006;2024-03-02T06:39:16;59.70;;;34.58;;
28862;SDS011;15994;51.796;13.006;2024-03-02T06:41:43;57.38;;;34.75;;
28862;SDS011;15994;51.796;13.006;2024-03-02T06:44:12;54.00;;;33.58;;
28862;SDS011;15994;51.796;13.006;2024-03-02T06:46:39;55.40;;;33.90;;
28862;SDS011;15994;51.796;13.006;2024-03-02T06:49:05;58.80;;;34.78;;
28862;SDS011;15994;51.796;13.006;2024-03-02T06:51:33;54.97;;;33.95;;
28862;SDS011;15994;51.796;13.006;2024-03-02T06:54:00;54.22;;;32.92;;
28862;SDS011;15994;51.796;13.006;2024-03-02T06:56:27;55.13;;;32.78;;
28862;SDS011;15994;51.796;13.006;2024-03-02T06:58:58;53.10;;;33.00;;
28862;SDS011;15994;51.796;13.006;2024-03-02T07:01:24;53.80;;;33.92;;
28862;SDS011;15994;51.796;13.006;2024-03-02T07:03:53;52.97;;;33.05;;
28862;SDS011;15994;51.796;13.006;2024-03-02T07:06:19;71.78;;;33.30;;
28862;SDS011;15994;51.796;13.006;2024-03-02T07:08:46;51.45;;;32.03;;
28862;SDS011;15994;51.796;13.006;2024-03-02T07:11:13;52.35;;;32.17;;
28862;SDS011;15994;51.796;13.006;2024-03-02T07:13:40;52.20;;;32.30;;
28862;SDS011;15994;51.796;13.006;2024-03-02T07:16:07;53.17;;;33.30;;
28862;SDS011;15994;51.796;13.006;2024-03-02T07:18:54;52.58;;;31.23;;
28862;SDS011;15994;51.796;13.006;2024-03-02T07:21:21;49.72;;;31.27;;
28862;SDS011;15994;51.796;13.006;2024-03-02T07:23:48;48.72;;;31.13;;
28862;SDS011;15994;51.796;13.006;2024-03-02T07:26:16;54.90;;;33.17;;
28862;SDS011;15994;51.796;13.006;2024-03-02T07:28:44;52.75;;;31.83;;
28862;SDS011;15994;51.796;13.006;2024-03-02T07:31:11;53.00;;;32.00;;
28862;SDS011;15994;51.796;13.006;2024-03-02T07:33:38;50.92;;;32.17;;
28862;SDS011;15994;51.796;13.006;2024-03-02T07:36:05;48.45;;;31.45;;
28862;SDS011;15994;51.796;13.006;2024-03-02T07:38:32;49.67;;;30.08;;
28862;SDS011;15994;51.796;13.006;2024-03-02T07:41:00;47.13;;;30.85;;
28862;SDS011;15994;51.796;13.006;2024-03-02T07:43:27;52.47;;;31.10;;
28862;SDS011;15994;51.796;13.006;2024-03-02T07:45:54;50.72;;;30.48;;
28862;SDS011;15994;51.796;13.006;2024-03-02T07:48:22;49.50;;;31.02;;
28862;SDS011;15994;51.796;13.006;2024-03-02T07:50:48;50.80;;;31.10;;
28862;SDS011;15994;51.796;13.006;2024-03-02T07:53:15;49.30;;;29.75;;
28862;SDS011;15994;51.796;13.006;2024-03-02T07:55:43;43.38;;;28.90;;
28862;SDS011;15994;51.796;13.006;2024-03-02T07:58:10;42.10;;;28.08;;
28862;SDS011;15994;51.796;13.006;2024-03-02T08:00:40;45.50;;;28.98;;
28862;SDS011;15994;51.796;13.006;2024-03-02T08:03:07;43.45;;;28.42;;
28862;SDS011;15994;51.796;13.006;2024-03-02T08:05:36;45.95;;;28.65;;
28862;SDS011;15994;51.796;13.006;2024-03-02T08:08:03;41.60;;;26.92;;
28862;SDS011;15994;51.796;13.006;2024-03-02T08:10:30;47.45;;;29.30;;
28862;SDS011;15994;51.796;13.006;2024-03-02T08:12:58;43.40;;;28.95;;
28862;SDS011;15994;51.796;13.006;2024-03-02T08:15:25;46.58;;;28.98;;
28862;SDS011;15994;51.796;13.006;2024-03-02T08:17:52;45.00;;;28.48;;
28862;SDS011;15994;51.796;13.006;2024-03-02T08:20:19;44.28;;;28.48;;
28862;SDS011;15994;51.796;13.006;2024-03-02T08:22:46;41.97;;;27.17;;
28862;SDS011;15994;51.796;13.006;2024-03-02T08:25:13;42.95;;;27.08;;
28862;SDS011;15994;51.796;13.006;2024-03-02T08:27:40;42.08;;;26.42;;
28862;SDS011;15994;51.796;13.006;2024-03-02T08:30:08;41.17;;;26.92;;
28862;SDS011;15994;51.796;13.006;2024-03-02T08:32:35;42.88;;;26.27;;
28862;SDS011;15994;51.796;13.006;2024-03-02T08:35:02;40.90;;;26.20;;
28862;SDS011;15994;51.796;13.006;2024-03-02T08:37:30;39.70;;;25.65;;
28862;SDS011;15994;51.796;13.006;2024-03-02T08:39:56;42.60;;;26.95;;
28862;SDS011;15994;51.796;13.006;2024-03-02T08:42:23;41.63;;;26.70;;
28862;SDS011;15994;51.796;13.006;2024-03-02T08:44:50;39.33;;;26.45;;
28862;SDS011;15994;51.796;13.006;2024-03-02T08:47:17;39.28;;;25.70;;
28862;SDS011;15994;51.796;13.006;2024-03-02T08:49:44;39.58;;;25.20;;
28862;SDS011;15994;51.796;13.006;2024-03-02T08:52:11;42.30;;;26.40;;
28862;SDS011;15994;51.796;13.006;2024-03-02T08:54:38;39.97;;;25.70;;
28862;SDS011;15994;51.796;13.006;2024-03-02T08:57:05;38.75;;;26.02;;
28862;SDS011;15994;51.796;13.006;2024-03-02T08:59:32;42.13;;;26.08;;
28862;SDS011;15994;51.796;13.006;2024-03-02T09:01:59;39.15;;;26.52;;
28862;SDS011;15994;51.796;13.006;2024-03-02T09:04:27;40.63;;;27.00;;
28862;SDS011;15994;51.796;13.006;2024-03-02T09:06:54;39.75;;;26.63;;
28862;SDS011;15994;51.796;13.006;2024-03-02T09:09:21;40.58;;;26.33;;
28862;SDS011;15994;51.796;13.006;2024-03-02T09:11:48;44.63;;;26.85;;
28862;SDS011;15994;51.796;13.006;2024-03-02T09:14:15;40.70;;;25.77;;
28862;SDS011;15994;51.796;13.006;2024-03-02T09:16:42;39.72;;;25.40;;
28862;SDS011;15994;51.796;13.006;2024-03-02T09:19:09;40.42;;;24.48;;
28862;SDS011;15994;51.796;13.006;2024-03-02T09:21:36;39.72;;;24.77;;
28862;SDS011;15994;51.796;13.006;2024-03-02T09:24:03;38.28;;;25.17;;
28862;SDS011;15994;51.796;13.006;2024-03-02T09:26:31;37.50;;;23.88;;
28862;SDS011;15994;51.796;13.006;2024-03-02T09:28:58;36.50;;;24.38;;
28862;SDS011;15994;51.796;13.006;2024-03-02T09:31:25;36.13;;;24.65;;
28862;SDS011;15994;51.796;13.006;2024-03-02T09:33:52;35.92;;;24.27;;
28862;SDS011;15994;51.796;13.006;2024-03-02T09:36:19;36.85;;;23.33;;
28862;SDS011;15994;51.796;13.006;2024-03-02T09:38:47;39.05;;;25.10;;
28862;SDS011;15994;51.796;13.006;2024-03-02T09:41:14;36.15;;;24.52;;
28862;SDS011;15994;51.796;13.006;2024-03-02T09:43:41;36.45;;;23.77;;
28862;SDS011;15994;51.796;13.006;2024-03-02T09:46:09;37.60;;;24.48;;
28862;SDS011;15994;51.796;13.006;2024-03-02T09:48:36;36.42;;;24.35;;
28862;SDS011;15994;51.796;13.006;2024-03-02T09:51:03;34.83;;;24.20;;
28862;SDS011;15994;51.796;13.006;2024-03-02T09:53:31;36.20;;;23.80;;
28862;SDS011;15994;51.796;13.006;2024-03-02T09:55:59;35.65;;;23.90;;
28862;SDS011;15994;51.796;13.006;2024-03-02T09:58:26;40.17;;;24.85;;
28862;SDS011;15994;51.796;13.006;2024-03-02T10:00:53;49.50;;;34.58;;
28862;SDS011;15994;51.796;13.006;2024-03-02T10:03:20;53.10;;;38.97;;
28862;SDS011;15994;51.796;13.006;2024-03-02T10:05:49;58.70;;;43.88;;
28862;SDS011;15994;51.796;13.006;2024-03-02T10:08:16;61.40;;;44.13;;
28862;SDS011;15994;51.796;13.006;2024-03-02T10:10:43;45.90;;;32.97;;
28862;SDS011;15994;51.796;13.006;2024-03-02T10:13:11;36.05;;;25.38;;
28862;SDS011;15994;51.796;13.006;2024-03-02T10:15:38;40.00;;;25.73;;
28862;SDS011;15994;51.796;13.006;2024-03-02T10:18:09;37.17;;;25.15;;
28862;SDS011;15994;51.796;13.006;2024-03-02T10:20:38;37.20;;;23.98;;
28862;SDS011;15994;51.796;13.006;2024-03-02T10:23:09;34.45;;;24.63;;
28862;SDS011;15994;51.796;13.006;2024-03-02T10:25:36;36.75;;;24.98;;
28862;SDS011;15994;51.796;13.006;2024-03-02T10:28:03;39.00;;;24.63;;
28862;SDS011;15994;51.796;13.006;2024-03-02T10:30:31;32.67;;;22.35;;
28862;SDS011;15994;51.796;13.006;2024-03-02T10:32:59;38.28;;;23.83;;
28862;SDS011;15994;51.796;13.006;2024-03-02T10:35:27;35.95;;;23.52;;
28862;SDS011;15994;51.796;13.006;2024-03-02T10:37:56;36.13;;;23.15;;
28862;SDS011;15994;51.796;13.006;2024-03-02T10:40:25;36.40;;;23.90;;
28862;SDS011;15994;51.796;13.006;2024-03-02T10:42:52;34.05;;;22.77;;
28862;SDS011;15994;51.796;13.006;2024-03-02T10:45:20;37.13;;;23.25;;
28862;SDS011;15994;51.796;13.006;2024-03-02T10:47:48;32.15;;;21.95;;
28862;SDS011;15994;51.796;13.006;2024-03-02T10:50:16;30.42;;;21.50;;
28862;SDS011;15994;51.796;13.006;2024-03-02T10:52:43;34.45;;;22.08;;
28862;SDS011;15994;51.796;13.006;2024-03-02T10:55:10;32.00;;;21.17;;
28862;SDS011;15994;51.796;13.006;2024-03-02T10:57:41;32.20;;;21.77;;
28862;SDS011;15994;51.796;13.006;2024-03-02T11:00:11;33.67;;;22.13;;
28862;SDS011;15994;51.796;13.006;2024-03-02T11:02:49;33.67;;;21.52;;
28862;SDS011;15994;51.796;13.006;2024-03-02T11:05:20;31.13;;;21.55;;
28862;SDS011;15994;51.796;13.006;2024-03-02T11:07:51;30.70;;;21.00;;
28862;SDS011;15994;51.796;13.006;2024-03-02T11:10:19;31.83;;;21.50;;
28862;SDS011;15994;51.796;13.006;2024-03-02T11:12:54;29.83;;;21.08;;
28862;SDS011;15994;51.796;13.006;2024-03-02T11:15:22;30.42;;;20.95;;
28862;SDS011;15994;51.796;13.006;2024-03-02T11:17:51;31.42;;;20.75;;
28862;SDS011;15994;51.796;13.006;2024-03-02T11:20:19;29.65;;;20.00;;
28862;SDS011;15994;51.796;13.006;2024-03-02T11:22:46;30.30;;;20.65;;
28862;SDS011;15994;51.796;13.006;2024-03-02T11:25:22;27.58;;;20.08;;
28862;SDS011;15994;51.796;13.006;2024-03-02T11:33:05;29.02;;;20.38;;
28862;SDS011;15994;51.796;13.006;2024-03-02T11:38:03;29.33;;;19.95;;
28862;SDS011;15994;51.796;13.006;2024-03-02T11:40:30;27.77;;;19.27;;
28862;SDS011;15994;51.796;13.006;2024-03-02T11:42:59;30.40;;;20.38;;
28862;SDS011;15994;51.796;13.006;2024-03-02T11:45:26;28.90;;;18.98;;
28862;SDS011;15994;51.796;13.006;2024-03-02T11:47:54;26.20;;;18.27;;
28862;SDS011;15994;51.796;13.006;2024-03-02T11:50:30;27.58;;;18.65;;
28862;SDS011;15994;51.796;13.006;2024-03-02T11:52:57;29.75;;;18.65;;
28862;SDS011;15994;51.796;13.006;2024-03-02T11:55:27;27.52;;;19.38;;
28862;SDS011;15994;51.796;13.006;2024-03-02T11:57:54;27.33;;;18.55;;
28862;SDS011;15994;51.796;13.006;2024-03-02T12:00:21;26.50;;;18.00;;
28862;SDS011;15994;51.796;13.006;2024-03-02T12:02:59;27.83;;;19.35;;
28862;SDS011;15994;51.796;13.006;2024-03-02T12:05:26;29.23;;;19.80;;
28862;SDS011;15994;51.796;13.006;2024-03-02T12:07:57;27.15;;;18.63;;
28862;SDS011;15994;51.796;13.006;2024-03-02T12:10:24;27.77;;;18.85;;
28862;SDS011;15994;51.796;13.006;2024-03-02T12:12:58;26.95;;;18.92;;
28862;SDS011;15994;51.796;13.006;2024-03-02T12:15:25;30.02;;;18.60;;
28862;SDS011;15994;51.796;13.006;2024-03-02T12:17:56;27.33;;;18.83;;
28862;SDS011;15994;51.796;13.006;2024-03-02T12:20:23;29.00;;;18.63;;
28862;SDS011;15994;51.796;13.006;2024-03-02T12:22:51;25.00;;;16.27;;
28862;SDS011;15994;51.796;13.006;2024-03-02T12:25:22;25.48;;;17.45;;
28862;SDS011;15994;51.796;13.006;2024-03-02T12:27:49;26.77;;;18.50;;
28862;SDS011;15994;51.796;13.006;2024-03-02T12:30:17;26.63;;;18.52;;
28862;SDS011;15994;51.796;13.006;2024-03-02T12:32:45;27.02;;;18.63;;
28862;SDS011;15994;51.796;13.006;2024-03-02T12:35:13;25.90;;;17.70;;
28862;SDS011;15994;51.796;13.006;2024-03-02T12:37:47;20.45;;;14.23;;
28862;SDS011;15994;51.796;13.006;2024-03-02T12:40:16;22.50;;;16.58;;
28862;SDS011;15994;51.796;13.006;2024-03-02T12:42:44;23.75;;;17.52;;
28862;SDS011;15994;51.796;13.006;2024-03-02T12:45:11;25.00;;;17.92;;
28862;SDS011;15994;51.796;13.006;2024-03-02T12:47:39;25.23;;;17.55;;
28862;SDS011;15994;51.796;13.006;2024-03-02T12:50:06;22.73;;;16.33;;
28862;SDS011;15994;51.796;13.006;2024-03-02T12:52:34;19.48;;;13.77;;
28862;SDS011;15994;51.796;13.006;2024-03-02T12:55:01;19.05;;;13.02;;
28862;SDS011;15994;51.796;13.006;2024-03-02T12:57:29;15.40;;;11.35;;
28862;SDS011;15994;51.796;13.006;2024-03-02T12:59:57;14.60;;;11.20;;
28862;SDS011;15994;51.796;13.006;2024-03-02T13:02:28;16.73;;;11.70;;
28862;SDS011;15994;51.796;13.006;2024-03-02T13:04:55;17.42;;;12.57;;
28862;SDS011;15994;51.796;13.006;2024-03-02T13:07:23;16.75;;;12.05;;
28862;SDS011;15994;51.796;13.006;2024-03-02T13:09:50;19.85;;;12.55;;
28862;SDS011;15994;51.796;13.006;2024-03-02T13:12:17;15.98;;;11.05;;
28862;SDS011;15994;51.796;13.006;2024-03-02T13:14:48;16.08;;;11.57;;
28862;SDS011;15994;51.796;13.006;2024-03-02T13:17:17;16.98;;;11.10;;
28862;SDS011;15994;51.796;13.006;2024-03-02T13:19:57;16.08;;;11.38;;
28862;SDS011;15994;51.796;13.006;2024-03-02T13:22:24;17.25;;;12.07;;
28862;SDS011;15994;51.796;13.006;2024-03-02T13:24:52;15.50;;;11.40;;
28862;SDS011;15994;51.796;13.006;2024-03-02T13:27:19;17.02;;;12.27;;
28862;SDS011;15994;51.796;13.006;2024-03-02T13:29:47;17.05;;;11.60;;
28862;SDS011;15994;51.796;13.006;2024-03-02T13:32:14;16.15;;;11.90;;
28862;SDS011;15994;51.796;13.006;2024-03-02T13:34:42;17.85;;;12.90;;
28862;SDS011;15994;51.796;13.006;2024-03-02T13:37:09;17.35;;;12.82;;
28862;SDS011;15994;51.796;13.006;2024-03-02T13:39:36;19.50;;;13.05;;
28862;SDS011;15994;51.796;13.006;2024-03-02T13:42:10;18.13;;;12.75;;
28862;SDS011;15994;51.796;13.006;2024-03-02T13:44:39;15.23;;;11.35;;
28862;SDS011;15994;51.796;13.006;2024-03-02T13:47:06;17.27;;;12.60;;
28862;SDS011;15994;51.796;13.006;2024-03-02T13:49:34;17.80;;;13.27;;
28862;SDS011;15994;51.796;13.006;2024-03-02T13:52:03;18.52;;;12.77;;
28862;SDS011;15994;51.796;13.006;2024-03-02T13:54:45;18.63;;;13.65;;
28862;SDS011;15994;51.796;13.006;2024-03-02T13:57:12;20.35;;;13.68;;
28862;SDS011;15994;51.796;13.006;2024-03-02T13:59:40;17.88;;;13.13;;
28862;SDS011;15994;51.796;13.006;2024-03-02T14:02:07;17.20;;;13.52;;
28862;SDS011;15994;51.796;13.006;2024-03-02T14:04:35;20.02;;;13.98;;
28862;SDS011;15994;51.796;13.006;2024-03-02T14:07:02;21.42;;;13.95;;
28862;SDS011;15994;51.796;13.006;2024-03-02T14:09:31;19.67;;;13.45;;
28862;SDS011;15994;51.796;13.006;2024-03-02T14:11:59;17.85;;;12.00;;
28862;SDS011;15994;51.796;13.006;2024-03-02T14:14:26;15.95;;;11.07;;
28862;SDS011;15994;51.796;13.006;2024-03-02T14:16:56;15.52;;;10.70;;
28862;SDS011;15994;51.796;13.006;2024-03-02T14:19:25;13.15;;;9.55;;